Time;durP1;ratioP1;P1;durP2;ratioP2;P2;SDS_P1;SDS_P2;PMS_P1;PMS_P2;Temp;Humidity;BMP_temperature;BMP_pressure;BME280_temperature;BME280_humidity;BME280_pressure;Samples;Min_cycle;Max_cycle;Signal;HPM_P1;HPM_P2
2023/04/12 00:02:18;;;;;;;7.60;6.00;;;;;;;9.48;85.22;99998.64;105985;1254;97992;-82
2023/04/12 00:05:04;;;;;;;8.90;6.50;;;;;;;9.44;85.35;99998.66;106119;1254;101313;-84
2023/04/12 00:07:52;;;;;;;8.80;7.00;;;;;;;9.39;85.59;99997.75;106225;1258;99835;-83
2023/04/12 00:10:37;;;;;;;10.80;7.90;;;;;;;9.30;85.70;99999.73;106120;1259;98291;-83
2023/04/12 00:13:23;;;;;;;11.20;8.80;;;;;;;9.22;85.80;100004.48;106008;1260;97964;-84
2023/04/12 00:16:09;;;;;;;10.80;8.30;;;;;;;9.16;86.11;100002.98;106080;1258;97825;-82
2023/04/12 00:18:54;;;;;;;12.10;8.60;;;;;;;9.15;86.32;100002.73;106299;1256;101315;-83
2023/04/12 00:21:39;;;;;;;12.30;8.60;;;;;;;9.15;86.48;99996.98;106142;1254;99124;-82
2023/04/12 00:24:25;;;;;;;14.10;9.50;;;;;;;9.16;86.58;99998.50;106085;1254;97907;-82
2023/04/12 00:27:11;;;;;;;14.30;11.00;;;;;;;9.14;86.76;100007.11;106235;1254;97874;-85
2023/04/12 00:29:56;;;;;;;12.60;10.30;;;;;;;9.15;86.77;100007.26;106156;1254;98930;-82
2023/04/12 00:32:42;;;;;;;15.50;10.70;;;;;;;9.16;86.85;100005.00;106120;1258;101343;-84
2023/04/12 00:35:28;;;;;;;14.30;11.00;;;;;;;9.16;86.91;99989.59;106131;1254;100941;-82
2023/04/12 00:38:14;;;;;;;18.40;12.30;;;;;;;9.15;86.74;99978.52;106166;1254;99269;-82
2023/04/12 00:41:00;;;;;;;18.90;14.80;;;;;;;9.10;86.91;99966.84;106250;1258;97916;-83
2023/04/12 00:43:46;;;;;;;19.80;15.60;;;;;;;9.08;87.37;99961.18;105946;1254;98475;-83
2023/04/12 00:46:32;;;;;;;21.20;15.20;;;;;;;9.06;87.62;99954.52;105870;1255;102654;-82
2023/04/12 00:49:17;;;;;;;20.80;15.20;;;;;;;9.02;87.70;99956.62;106012;1255;99752;-82
2023/04/12 00:52:07;;;;;;;20.30;14.40;;;;;;;8.98;88.01;99956.61;105988;1259;97985;-84
2023/04/12 00:54:53;;;;;;;18.50;14.90;;;;;;;8.97;88.32;99960.93;106110;1259;97961;-83
2023/04/12 00:57:39;;;;;;;20.50;12.70;;;;;;;8.95;88.36;99966.62;106284;1259;98621;-82
2023/04/12 01:00:25;;;;;;;20.40;14.90;;;;;;;8.89;88.67;99973.59;106227;1260;102013;-85
2023/04/12 01:03:12;;;;;;;20.20;14.60;;;;;;;8.89;88.81;99975.77;106172;1255;99063;-84
2023/04/12 01:06:08;;;;;;;20.50;13.90;;;;;;;8.88;89.04;99974.40;106070;1255;98715;-83
2023/04/12 01:09:10;;;;;;;19.60;13.60;;;;;;;8.92;89.35;99981.05;106025;1255;99122;-83
2023/04/12 01:12:16;;;;;;;18.60;13.30;;;;;;;8.95;89.32;99984.45;106138;1258;97917;-83
2023/04/12 01:15:12;;;;;;;19.10;12.90;;;;;;;8.96;89.46;99980.73;106045;1254;102668;-83
2023/04/12 01:18:04;;;;;;;18.20;12.80;;;;;;;8.98;89.66;99977.04;106161;1258;99095;-83
2023/04/12 01:21:00;;;;;;;18.70;13.50;;;;;;;8.99;89.51;99979.56;106129;1260;97986;-83
2023/04/12 01:24:21;;;;;;;22.00;13.60;;;;;;;8.99;89.73;99980.38;105938;1257;98069;-83
2023/04/12 01:27:12;;;;;;;19.50;13.90;;;;;;;8.97;89.58;99976.14;106053;1255;97974;-82
2023/04/12 01:30:00;;;;;;;25.00;15.70;;;;;;;8.96;89.79;99977.69;106279;1258;101602;-82
2023/04/12 01:32:52;;;;;;;20.30;13.30;;;;;;;8.97;90.03;99978.46;106288;1260;99361;-83
2023/04/12 01:35:40;;;;;;;19.30;13.80;;;;;;;8.97;90.03;99973.27;106097;1258;98392;-83
2023/04/12 01:38:27;;;;;;;19.90;14.10;;;;;;;8.96;90.00;99972.47;106286;1254;97967;-82
2023/04/12 01:41:13;;;;;;;20.20;14.20;;;;;;;8.97;90.07;99973.80;106236;1254;97963;-83
2023/04/12 01:43:59;;;;;;;18.50;14.30;;;;;;;8.98;90.12;99968.26;106198;1255;101405;-84
2023/04/12 01:46:48;;;;;;;19.70;15.00;;;;;;;8.97;90.31;99969.42;105909;1257;99082;-82
2023/04/12 01:49:46;;;;;;;20.00;13.70;;;;;;;8.94;90.12;99964.36;105959;1256;98504;-83
2023/04/12 01:52:36;;;;;;;18.40;13.50;;;;;;;8.92;90.25;99962.29;106792;1260;97933;-85
2023/04/12 01:55:24;;;;;;;17.50;12.40;;;;;;;8.93;90.34;99957.41;105957;1260;97961;-84
2023/04/12 01:58:11;;;;;;;17.30;12.70;;;;;;;8.92;90.51;99957.02;106010;1261;102091;-84
2023/04/12 02:00:59;;;;;;;18.80;12.90;;;;;;;8.90;90.60;99958.89;105787;1260;99102;-82
2023/04/12 02:03:48;;;;;;;18.60;13.90;;;;;;;8.88;90.55;99958.42;105974;1258;98025;-86
2023/04/12 02:06:36;;;;;;;17.30;12.90;;;;;;;8.87;90.75;99958.70;106258;1258;97991;-84
2023/04/12 02:09:22;;;;;;;16.30;12.70;;;;;;;8.84;90.62;99960.92;106104;1256;97972;-84
2023/04/12 02:12:08;;;;;;;18.20;12.20;;;;;;;8.80;90.91;99961.66;105969;1255;101343;-85
2023/04/12 02:14:56;;;;;;;20.30;13.30;;;;;;;8.79;90.90;99964.58;106047;1254;99164;-81
2023/04/12 02:17:41;;;;;;;18.70;13.00;;;;;;;8.80;90.94;99965.00;106552;1254;98566;-83
2023/04/12 02:20:28;;;;;;;20.60;13.30;;;;;;;8.79;91.02;99963.66;106143;1254;97860;-82
2023/04/12 02:23:14;;;;;;;21.10;13.30;;;;;;;8.77;91.06;99958.61;106100;1256;98498;-85
2023/04/12 02:26:00;;;;;;;16.80;13.10;;;;;;;8.76;91.23;99958.31;106061;1254;101293;-85
2023/04/12 02:28:46;;;;;;;15.90;12.30;;;;;;;8.76;91.26;99958.55;106131;1258;100049;-82
2023/04/12 02:31:35;;;;;;;16.20;11.60;;;;;;;8.76;91.34;99958.85;105871;1261;97963;-81
2023/04/12 02:34:21;;;;;;;17.50;12.30;;;;;;;8.76;91.22;99960.15;106101;1254;98063;-84
2023/04/12 02:37:12;;;;;;;15.90;12.00;;;;;;;8.76;91.27;99960.89;106001;1261;97780;-84
2023/04/12 02:40:01;;;;;;;18.80;12.70;;;;;;;8.74;91.45;99957.30;106177;1258;101385;-83
2023/04/12 02:42:48;;;;;;;16.30;12.70;;;;;;;8.74;91.36;99954.70;106035;1255;100039;-84
2023/04/12 02:45:35;;;;;;;14.70;12.10;;;;;;;8.73;91.44;99956.42;105912;1261;99122;-84
2023/04/12 02:48:21;;;;;;;17.90;13.00;;;;;;;8.71;91.58;99953.95;106001;1254;98155;-84
2023/04/12 02:51:06;;;;;;;18.20;12.60;;;;;;;8.68;91.57;99953.87;106245;1255;99222;-84
2023/04/12 02:53:52;;;;;;;17.80;12.70;;;;;;;8.67;91.94;99950.27;106290;1256;101470;-85
2023/04/12 02:56:42;;;;;;;20.10;13.10;;;;;;;8.68;92.11;99949.89;107250;1258;99080;-84
2023/04/12 02:59:42;;;;;;;17.20;12.70;;;;;;;8.68;91.96;99947.83;106081;1258;97949;-86
2023/04/12 03:02:54;;;;;;;18.10;12.00;;;;;;;8.66;91.88;99949.11;106136;1256;98011;-83
2023/04/12 03:05:46;;;;;;;18.90;13.10;;;;;;;8.64;91.99;99942.08;106282;1255;98499;-82
2023/04/12 03:08:32;;;;;;;18.40;12.60;;;;;;;8.62;92.05;99941.20;106052;1256;102652;-82
2023/04/12 03:11:18;;;;;;;16.50;10.90;;;;;;;8.59;92.11;99935.95;106059;1256;99074;-83
2023/04/12 03:14:04;;;;;;;19.00;12.70;;;;;;;8.54;92.25;99935.66;106085;1259;97932;-83
2023/04/12 03:16:52;;;;;;;18.00;12.80;;;;;;;8.53;92.34;99937.29;105882;1254;98037;-83
2023/04/12 03:19:38;;;;;;;16.20;12.60;;;;;;;8.53;92.19;99937.66;106372;1254;96424;-84
2023/04/12 03:22:25;;;;;;;18.50;13.00;;;;;;;8.47;92.05;99942.93;106089;1253;101331;-82
2023/04/12 03:25:16;;;;;;;16.80;13.00;;;;;;;8.43;92.52;99949.27;106049;1254;99271;-83
2023/04/12 03:28:06;;;;;;;20.90;12.80;;;;;;;8.43;92.80;99949.80;106032;1258;98423;-84
2023/04/12 03:31:04;;;;;;;16.70;12.50;;;;;;;8.42;92.68;99948.52;105971;1261;97858;-83
2023/04/12 03:33:58;;;;;;;21.50;12.50;;;;;;;8.42;92.77;99952.81;105923;1255;97954;-84
2023/04/12 03:36:44;;;;;;;17.00;12.10;;;;;;;8.41;92.96;99955.30;106087;1256;101344;-83
2023/04/12 03:39:40;;;;;;;17.60;13.40;;;;;;;8.41;93.38;99957.48;106046;1261;99112;-84
2023/04/12 03:42:28;;;;;;;16.60;12.70;;;;;;;8.43;93.25;99964.04;106148;1259;98973;-82
2023/04/12 03:45:14;;;;;;;19.80;13.00;;;;;;;8.43;93.21;99964.56;105945;1261;97950;-83
2023/04/12 03:48:03;;;;;;;16.80;13.10;;;;;;;8.45;93.39;99969.52;106186;1255;97878;-84
2023/04/12 03:50:53;;;;;;;14.70;12.20;;;;;;;8.48;93.49;99973.41;106353;1255;102626;-84
2023/04/12 03:53:40;;;;;;;20.80;13.50;;;;;;;8.52;93.42;99980.04;108456;1255;99105;-84
2023/04/12 03:56:26;;;;;;;23.30;17.50;;;;;;;8.53;93.46;99980.08;106075;1260;97907;-83
2023/04/12 03:59:13;;;;;;;26.50;18.80;;;;;;;8.55;93.58;99984.59;106031;1262;97958;-82
2023/04/12 04:02:01;;;;;;;29.20;19.30;;;;;;;8.60;93.70;99983.28;106015;1255;98569;-82
2023/04/12 04:04:48;;;;;;;39.70;25.30;;;;;;;8.64;93.67;99977.11;106212;1258;103600;-84
2023/04/12 04:07:39;;;;;;;47.20;31.80;;;;;;;8.67;93.67;99975.70;106076;1260;100327;-85
2023/04/12 04:10:28;;;;;;;41.20;28.60;;;;;;;8.70;93.66;99977.39;106333;1255;98631;-84
2023/04/12 04:13:15;;;;;;;50.10;32.80;;;;;;;8.73;93.52;99981.52;106118;1260;99135;-84
2023/04/12 04:16:08;;;;;;;44.40;29.40;;;;;;;8.74;93.51;99978.00;106052;1255;98423;-84
2023/04/12 04:18:54;;;;;;;39.90;29.80;;;;;;;8.77;93.55;99975.36;105927;1256;101485;-85
2023/04/12 04:21:41;;;;;;;27.80;21.90;;;;;;;8.78;93.52;99974.42;106310;1255;100790;-86
2023/04/12 04:24:28;;;;;;;26.40;21.00;;;;;;;8.78;93.34;99976.56;106236;1254;97888;-81
2023/04/12 04:27:19;;;;;;;24.60;17.80;;;;;;;8.78;93.23;99977.84;105890;1254;99190;-84
2023/04/12 04:30:05;;;;;;;23.10;16.90;;;;;;;8.79;92.99;99976.41;106115;1260;98483;-84
2023/04/12 04:32:51;;;;;;;21.00;14.80;;;;;;;8.82;93.12;99974.85;106140;1256;102502;-81
2023/04/12 04:35:40;;;;;;;21.60;16.20;;;;;;;8.84;93.13;99978.02;105958;1260;99164;-85
2023/04/12 04:38:40;;;;;;;20.20;14.00;;;;;;;8.84;93.24;99978.52;106015;1256;98119;-86
2023/04/12 04:41:33;;;;;;;19.80;14.50;;;;;;;8.84;93.35;99979.24;106310;1254;97938;-86
2023/04/12 04:44:20;;;;;;;17.20;13.00;;;;;;;8.86;93.32;99980.35;106231;1261;97755;-84
2023/04/12 04:47:14;;;;;;;19.50;14.30;;;;;;;8.87;93.06;99984.04;106284;1260;103107;-84
2023/04/12 04:50:00;;;;;;;21.40;13.80;;;;;;;8.88;93.14;99982.41;105924;1257;99176;-83
2023/04/12 04:52:47;;;;;;;19.60;14.60;;;;;;;8.88;93.12;99985.66;105945;1260;98325;-84
2023/04/12 04:55:33;;;;;;;17.60;13.30;;;;;;;8.90;93.31;99984.57;105987;1255;97984;-82
2023/04/12 04:58:19;;;;;;;19.00;13.40;;;;;;;8.91;93.49;99979.52;106170;1255;98475;-84
2023/04/12 05:01:05;;;;;;;19.30;13.70;;;;;;;8.92;93.20;99978.75;106080;1255;102589;-86
2023/04/12 05:03:54;;;;;;;19.00;12.80;;;;;;;8.95;93.33;99982.60;106230;1254;99058;-86
2023/04/12 05:06:40;;;;;;;18.30;14.10;;;;;;;8.98;93.32;99985.05;106081;1254;97979;-88
2023/04/12 05:09:27;;;;;;;18.80;13.80;;;;;;;9.01;93.30;99982.61;106270;1260;97869;-82
2023/04/12 05:12:15;;;;;;;16.90;13.20;;;;;;;9.03;93.32;99984.29;106086;1260;99679;-83
2023/04/12 05:15:05;;;;;;;18.50;13.10;;;;;;;9.04;93.36;99985.20;105972;1254;102628;-84
2023/04/12 05:17:51;;;;;;;17.90;12.70;;;;;;;9.03;93.36;99992.48;106075;1255;100320;-85
2023/04/12 05:20:37;;;;;;;18.30;12.90;;;;;;;9.03;93.50;99997.31;106231;1257;99259;-83
2023/04/12 05:23:22;;;;;;;17.10;13.80;;;;;;;9.04;93.49;99998.73;105983;1254;97869;-84
2023/04/12 05:26:12;;;;;;;16.60;12.90;;;;;;;9.07;93.50;99998.40;106179;1254;99021;-85
2023/04/12 05:29:00;;;;;;;18.30;12.60;;;;;;;9.07;93.43;100001.21;106372;1258;101324;-84
2023/04/12 05:31:45;;;;;;;20.80;14.50;;;;;;;9.06;93.33;100000.39;105969;1255;99357;-84
2023/04/12 05:34:36;;;;;;;16.60;12.70;;;;;;;9.06;93.36;100004.86;106040;1255;97965;-84
2023/04/12 05:37:21;;;;;;;17.80;13.10;;;;;;;9.06;93.24;100006.75;106136;1257;97930;-86
2023/04/12 05:40:08;;;;;;;19.50;13.60;;;;;;;9.06;93.34;100010.95;106263;1254;97949;-85
2023/04/12 05:42:54;;;;;;;39.30;23.70;;;;;;;9.09;93.47;100015.91;106015;1260;101339;-82
2023/04/12 05:45:40;;;;;;;23.70;15.50;;;;;;;9.12;93.51;100015.77;106175;1260;99587;-82
2023/04/12 05:48:27;;;;;;;25.80;18.90;;;;;;;9.13;93.34;100016.47;106081;1256;97897;-83
2023/04/12 05:51:14;;;;;;;19.60;14.70;;;;;;;9.14;93.30;100015.70;106034;1256;99203;-82
2023/04/12 05:54:00;;;;;;;19.40;14.00;;;;;;;9.15;93.34;100015.02;106188;1255;98447;-85
2023/04/12 05:56:48;;;;;;;20.00;14.50;;;;;;;9.17;93.41;100019.39;106028;1259;101340;-82
2023/04/12 05:59:34;;;;;;;18.00;13.40;;;;;;;9.19;93.68;100019.78;106164;1255;100483;-86
2023/04/12 06:02:20;;;;;;;18.10;14.20;;;;;;;9.21;93.48;100018.77;105891;1253;97861;-85
2023/04/12 06:05:07;;;;;;;18.10;13.60;;;;;;;9.24;93.49;100018.23;105868;1256;97987;-84
2023/04/12 06:07:58;;;;;;;18.80;13.70;;;;;;;9.25;93.24;100020.30;106255;1255;97965;-82
2023/04/12 06:10:44;;;;;;;19.00;13.30;;;;;;;9.25;93.19;100021.82;106056;1260;101326;-85
2023/04/12 06:13:31;;;;;;;19.70;13.50;;;;;;;9.25;93.21;100022.80;105934;1255;99118;-84
2023/04/12 06:16:16;;;;;;;20.70;14.10;;;;;;;9.25;93.23;100021.48;106402;1255;99014;-82
2023/04/12 06:19:02;;;;;;;18.60;13.20;;;;;;;9.25;93.13;100021.12;106297;1260;97974;-79
2023/04/12 06:21:47;;;;;;;18.50;13.90;;;;;;;9.25;93.18;100020.42;106527;1253;97860;-80
2023/04/12 06:24:33;;;;;;;19.90;13.70;;;;;;;9.26;93.31;100017.70;106424;1255;102587;-83
2023/04/12 06:27:21;;;;;;;21.40;14.80;;;;;;;9.26;93.27;100018.08;106299;1255;100002;-81
2023/04/12 06:30:08;;;;;;;16.20;12.90;;;;;;;9.28;93.31;100020.13;106029;1256;98855;-81
2023/04/12 06:32:55;;;;;;;23.00;15.20;;;;;;;9.28;93.15;100014.20;105880;1256;97975;-83
2023/04/12 06:35:41;;;;;;;20.50;14.70;;;;;;;9.28;93.08;100014.27;105750;1261;98029;-82
2023/04/12 06:38:27;;;;;;;21.40;14.70;;;;;;;9.26;93.08;100017.34;106415;1260;101325;-80
2023/04/12 06:41:12;;;;;;;17.60;13.40;;;;;;;9.22;93.00;100021.29;106289;1258;99147;-81
2023/04/12 06:43:58;;;;;;;21.70;15.30;;;;;;;9.19;93.06;100020.23;106219;1258;97901;-81
2023/04/12 06:46:43;;;;;;;28.90;17.20;;;;;;;9.20;93.34;100014.40;106135;1258;98972;-80
2023/04/12 06:49:29;;;;;;;39.10;24.50;;;;;;;9.20;93.30;100015.27;106405;1254;97956;-80
2023/04/12 06:52:15;;;;;;;38.30;25.20;;;;;;;9.20;93.42;100013.05;106561;1261;101346;-81
2023/04/12 06:55:00;;;;;;;23.90;16.20;;;;;;;9.24;93.50;100017.33;106167;1255;99766;-79
2023/04/12 06:57:46;;;;;;;23.20;16.00;;;;;;;9.29;93.40;100017.65;105323;1260;99229;-82
2023/04/12 07:00:32;;;;;;;18.20;13.60;;;;;;;9.33;93.58;100021.92;105726;1255;97874;-77
2023/04/12 07:03:17;;;;;;;22.90;15.20;;;;;;;9.37;93.69;100024.92;105758;1260;97955;-81
2023/04/12 07:06:03;;;;;;;21.20;14.40;;;;;;;9.41;93.61;100022.94;106768;1256;101420;-80
2023/04/12 07:08:49;;;;;;;18.40;13.20;;;;;;;9.42;93.39;100018.83;106529;1254;100346;-80
2023/04/12 07:11:35;;;;;;;20.70;14.50;;;;;;;9.43;93.22;100023.23;106637;1260;98558;-78
2023/04/12 07:14:20;;;;;;;18.90;14.30;;;;;;;9.44;93.36;100022.22;105768;1258;97888;-80
2023/04/12 07:17:05;;;;;;;17.20;13.40;;;;;;;9.46;93.66;100020.35;105983;1259;98485;-79
2023/04/12 07:19:53;;;;;;;18.00;13.80;;;;;;;9.49;93.55;100019.29;105872;1256;102601;-79
2023/04/12 07:22:38;;;;;;;20.80;14.40;;;;;;;9.49;93.14;100021.09;106323;1260;100344;-80
2023/04/12 07:25:24;;;;;;;19.50;13.10;;;;;;;9.52;93.63;100023.67;106245;1254;98023;-79
2023/04/12 07:28:09;;;;;;;23.80;13.20;;;;;;;9.58;93.59;100024.47;105333;1256;97886;-78
2023/04/12 07:30:55;;;;;;;20.20;13.90;;;;;;;9.66;93.61;100023.13;105881;1255;98572;-77
2023/04/12 07:33:40;;;;;;;23.40;14.50;;;;;;;9.73;93.15;100019.86;105758;1256;102619;-80
2023/04/12 07:36:26;;;;;;;20.90;14.10;;;;;;;9.80;93.09;100019.00;106636;1254;100326;-78
2023/04/12 07:39:13;;;;;;;21.80;13.90;;;;;;;9.88;93.01;100018.07;106343;1258;97895;-80
2023/04/12 07:41:58;;;;;;;18.60;13.50;;;;;;;9.96;92.99;100016.55;106534;1255;97982;-80
2023/04/12 07:44:44;;;;;;;23.70;14.60;;;;;;;9.98;92.32;100016.19;105765;1256;98031;-78
2023/04/12 07:47:29;;;;;;;27.50;17.40;;;;;;;10.02;92.46;100013.53;105750;1258;101346;-80
2023/04/12 07:50:15;;;;;;;21.10;14.20;;;;;;;10.08;92.54;100011.75;105685;1261;100488;-79
2023/04/12 07:53:21;;;;;;;23.10;12.60;;;;;;;10.13;92.06;100015.27;105701;1256;97996;-78
2023/04/12 07:56:07;;;;;;;16.80;11.80;;;;;;;10.13;91.25;100016.35;106194;1255;98575;-79
2023/04/12 07:58:52;;;;;;;17.70;11.40;;;;;;;10.15;91.37;100017.31;105522;1255;97882;-78
2023/04/12 08:01:37;;;;;;;15.00;11.30;;;;;;;10.19;91.02;100013.82;105991;1258;101995;-79
2023/04/12 08:04:23;;;;;;;13.80;10.90;;;;;;;10.25;90.83;100010.52;106548;1257;99811;-80
2023/04/12 08:07:08;;;;;;;16.90;11.20;;;;;;;10.27;90.53;100012.80;106363;1258;97859;-80
2023/04/12 08:09:55;;;;;;;14.30;11.10;;;;;;;10.32;91.18;100013.92;106269;1256;97984;-80
2023/04/12 08:12:40;;;;;;;14.80;10.50;;;;;;;10.37;90.82;100015.43;106266;1260;97866;-80
2023/04/12 08:15:25;;;;;;;15.50;10.40;;;;;;;10.39;89.70;100017.16;106366;1261;102907;-81
2023/04/12 08:18:11;;;;;;;15.70;10.50;;;;;;;10.38;88.75;100017.52;106538;1258;99193;-79
2023/04/12 08:20:57;;;;;;;12.90;9.80;;;;;;;10.35;88.48;100016.09;106736;1256;97939;-79
2023/04/12 08:23:43;;;;;;;14.00;10.50;;;;;;;10.33;88.59;100017.55;105408;1259;97872;-78
2023/04/12 08:26:28;;;;;;;15.10;10.70;;;;;;;10.31;88.36;100019.98;105395;1258;98047;-80
2023/04/12 08:29:14;;;;;;;13.30;9.60;;;;;;;10.30;88.11;100020.14;105368;1258;101449;-76
2023/04/12 08:32:00;;;;;;;16.10;10.70;;;;;;;10.28;88.24;100017.04;105488;1256;99167;-77
2023/04/12 08:34:45;;;;;;;14.50;10.80;;;;;;;10.25;88.19;100013.61;105527;1258;97943;-75
2023/04/12 08:37:32;;;;;;;30.80;17.80;;;;;;;10.25;88.09;100015.30;105829;1256;99237;-76
2023/04/12 08:40:17;;;;;;;35.20;20.20;;;;;;;10.26;88.16;100008.86;105392;1256;98538;-76
2023/04/12 08:43:07;;;;;;;19.60;13.70;;;;;;;10.25;87.97;100011.34;105360;1258;101307;-77
2023/04/12 08:45:55;;;;;;;17.70;11.90;;;;;;;10.24;87.96;100009.85;105810;1256;99954;-76
2023/04/12 08:48:44;;;;;;;18.00;13.40;;;;;;;10.26;88.01;100013.58;105394;1259;99440;-76
2023/04/12 08:51:32;;;;;;;16.70;13.10;;;;;;;10.27;88.06;100013.91;105199;1260;97988;-76
2023/04/12 08:54:18;;;;;;;16.30;10.90;;;;;;;10.31;87.83;100017.42;105184;1255;98495;-76
2023/04/12 08:57:06;;;;;;;19.20;10.70;;;;;;;10.32;87.54;100027.15;105428;1256;103009;-77
2023/04/12 08:59:53;;;;;;;16.00;11.60;;;;;;;10.35;87.61;100027.16;105299;1260;99503;-76
2023/04/12 09:02:41;;;;;;;18.80;12.40;;;;;;;10.37;87.66;100023.09;105210;1268;99142;-76
2023/04/12 09:05:30;;;;;;;17.00;11.40;;;;;;;10.39;87.31;100024.09;105265;1259;97974;-76
2023/04/12 09:08:16;;;;;;;15.00;11.10;;;;;;;10.41;87.36;100029.98;106007;1260;99554;-75
2023/04/12 09:11:21;;;;;;;15.50;11.60;;;;;;;10.43;87.71;100031.20;105386;1258;101426;-76
2023/04/12 09:14:34;;;;;;;13.60;10.60;;;;;;;10.48;87.44;100033.81;105233;1260;100266;-76
2023/04/12 09:17:21;;;;;;;17.10;11.70;;;;;;;10.51;87.01;100032.83;105464;1260;99284;-77
2023/04/12 09:20:16;;;;;;;16.70;11.90;;;;;;;10.51;86.86;100028.95;105275;1260;97976;-76
2023/04/12 09:23:25;;;;;;;13.10;10.40;;;;;;;10.52;86.97;100030.40;105208;1255;98233;-76
2023/04/12 09:26:28;;;;;;;14.10;10.30;;;;;;;10.53;86.71;100035.10;105234;1256;102041;-76
2023/04/12 09:29:26;;;;;;;14.90;10.90;;;;;;;10.52;86.32;100032.42;105184;1256;99553;-76
2023/04/12 09:32:11;;;;;;;13.40;10.40;;;;;;;10.50;86.33;100027.27;105108;1260;99346;-76
2023/04/12 09:35:00;;;;;;;15.40;11.10;;;;;;;10.53;86.39;100021.38;105179;1261;99250;-76
2023/04/12 09:37:45;;;;;;;14.10;10.70;;;;;;;10.58;86.13;100015.43;105992;1255;97992;-76
2023/04/12 09:40:35;;;;;;;15.40;10.70;;;;;;;10.61;85.93;100007.79;105495;1256;101345;-76
2023/04/12 09:43:39;;;;;;;14.80;11.50;;;;;;;10.68;85.75;100004.95;105334;1259;99126;-76
2023/04/12 09:46:25;;;;;;;12.10;9.80;;;;;;;10.76;85.80;100005.23;105040;1258;106026;-75
2023/04/12 09:49:11;;;;;;;15.10;10.90;;;;;;;10.83;85.14;100001.41;105293;1255;98049;-76
2023/04/12 09:52:02;;;;;;;14.20;11.50;;;;;;;10.89;85.56;100001.73;105392;1258;97987;-80
2023/04/12 09:54:49;;;;;;;13.90;10.00;;;;;;;10.98;85.54;99996.32;105290;1259;102855;-76
2023/04/12 09:57:38;;;;;;;12.00;9.90;;;;;;;11.05;84.77;99991.55;105210;1258;100294;-76
2023/04/12 10:00:26;;;;;;;13.20;10.80;;;;;;;11.06;83.95;99987.88;105260;1258;98069;-76
2023/04/12 10:03:12;;;;;;;13.40;11.20;;;;;;;11.06;83.54;99990.69;105280;1258;97951;-76
2023/04/12 10:05:57;;;;;;;12.70;10.40;;;;;;;11.07;83.56;99990.06;105250;1260;97979;-77
2023/04/12 10:08:44;;;;;;;12.50;10.60;;;;;;;11.11;83.55;99989.78;105264;1260;102541;-76
2023/04/12 10:11:32;;;;;;;14.30;11.30;;;;;;;11.18;83.85;99986.70;105560;1260;99081;-76
2023/04/12 10:14:20;;;;;;;13.30;10.70;;;;;;;11.24;83.25;99981.02;106653;1255;98949;-75
2023/04/12 10:17:08;;;;;;;15.30;10.70;;;;;;;11.30;83.42;99983.69;105938;1256;97961;-77
2023/04/12 10:19:53;;;;;;;16.50;11.70;;;;;;;11.36;82.85;99987.87;105396;1256;97866;-77
2023/04/12 10:22:45;;;;;;;14.80;11.50;;;;;;;11.40;82.66;99991.98;105259;1255;102700;-77
2023/04/12 10:25:31;;;;;;;16.10;12.60;;;;;;;11.45;82.82;99989.95;106262;1260;99800;-78
2023/04/12 10:28:20;;;;;;;14.60;10.90;;;;;;;11.52;82.34;99987.02;105625;1258;100616;-77
2023/04/12 10:31:26;;;;;;;14.60;11.70;;;;;;;11.52;81.60;99987.80;105286;1258;99293;-75
2023/04/12 10:34:11;;;;;;;15.70;11.70;;;;;;;11.55;81.74;99991.20;105189;1255;98614;-75
2023/04/12 10:37:00;;;;;;;17.90;12.00;;;;;;;11.60;81.90;99991.93;106258;1253;101337;-81
2023/04/12 10:39:53;;;;;;;17.20;13.10;;;;;;;11.64;82.49;99990.93;106146;1258;99075;-78
2023/04/12 10:42:38;;;;;;;17.00;13.90;;;;;;;11.70;81.96;99994.05;105639;1255;98869;-79
2023/04/12 10:45:24;;;;;;;17.80;12.90;;;;;;;11.70;81.34;99998.06;105658;1260;97920;-80
2023/04/12 10:48:35;;;;;;;18.30;12.80;;;;;;;11.69;81.01;99993.52;105703;1259;99385;-80
2023/04/12 10:51:27;;;;;;;16.70;14.10;;;;;;;11.71;81.82;99991.46;105592;1260;102620;-80
2023/04/12 10:54:17;;;;;;;17.60;14.00;;;;;;;11.77;81.52;99993.76;105768;1255;99149;-79
2023/04/12 10:57:03;;;;;;;17.10;14.40;;;;;;;11.81;81.15;99994.58;105553;1259;99126;-77
2023/04/12 10:59:55;;;;;;;19.70;15.10;;;;;;;11.85;81.29;99985.41;105381;1258;98062;-78
2023/04/12 11:03:06;;;;;;;17.90;14.70;;;;;;;11.93;80.61;99983.86;105557;1258;99750;-78
2023/04/12 11:06:03;;;;;;;19.40;15.00;;;;;;;12.02;80.78;99987.55;105558;1256;101348;-76
2023/04/12 11:09:33;;;;;;;18.40;14.30;;;;;;;12.11;81.09;99989.08;105576;1270;99126;-80
2023/04/12 11:12:19;;;;;;;17.70;14.10;;;;;;;12.19;80.82;99982.63;105528;1261;98964;-76
2023/04/12 11:15:06;;;;;;;21.70;15.20;;;;;;;12.30;81.48;99976.48;105309;1261;98051;-77
2023/04/12 11:18:05;;;;;;;18.20;13.70;;;;;;;12.37;80.25;99977.05;105642;1261;97997;-78
2023/04/12 11:20:51;;;;;;;20.30;14.40;;;;;;;12.38;79.66;99978.21;105329;1258;103214;-79
2023/04/12 11:23:38;;;;;;;19.20;15.10;;;;;;;12.42;80.12;99976.66;105208;1260;99853;-77
2023/04/12 11:26:28;;;;;;;21.00;15.60;;;;;;;12.51;80.99;99973.36;105271;1258;98697;-79
2023/04/12 11:29:15;;;;;;;20.20;15.60;;;;;;;12.61;80.24;99972.64;105198;1258;97975;-76
2023/04/12 11:32:02;;;;;;;23.20;17.60;;;;;;;12.65;79.48;99972.74;105276;1260;98415;-78
2023/04/12 11:34:48;;;;;;;17.20;14.60;;;;;;;12.64;78.38;99972.59;105858;1260;102677;-79
2023/04/12 11:37:34;;;;;;;19.60;14.70;;;;;;;12.61;78.03;99969.54;105626;1257;99069;-78
2023/04/12 11:40:21;;;;;;;17.40;13.20;;;;;;;12.59;77.70;99970.41;105260;1255;99057;-77
2023/04/12 11:43:07;;;;;;;20.00;15.40;;;;;;;12.56;77.64;99967.42;105209;1258;97947;-77
2023/04/12 11:46:00;;;;;;;17.30;14.20;;;;;;;12.56;77.00;99964.95;105227;1260;98046;-77
2023/04/12 11:48:46;;;;;;;19.60;15.10;;;;;;;12.54;77.07;99966.80;105329;1257;101392;-78
2023/04/12 11:51:32;;;;;;;19.30;14.50;;;;;;;12.54;77.61;99963.16;105308;1258;99401;-78
2023/04/12 11:54:18;;;;;;;17.90;13.90;;;;;;;12.53;76.70;99961.23;105329;1258;98678;-77
2023/04/12 11:57:03;;;;;;;18.90;13.70;;;;;;;12.49;76.09;99958.77;105227;1271;98035;-78
2023/04/12 11:59:49;;;;;;;19.00;14.60;;;;;;;12.49;76.46;99956.52;105901;1260;98488;-80
2023/04/12 12:02:36;;;;;;;17.40;14.40;;;;;;;12.50;76.23;99951.05;106637;1259;102239;-80
2023/04/12 12:05:23;;;;;;;17.20;13.30;;;;;;;12.50;75.95;99948.03;106420;1256;100456;-80
2023/04/12 12:08:09;;;;;;;17.00;13.30;;;;;;;12.51;76.29;99950.30;106652;1260;99130;-76
2023/04/12 12:10:55;;;;;;;18.60;13.50;;;;;;;12.57;76.15;99946.74;105242;1259;97972;-76
2023/04/12 12:13:44;;;;;;;18.20;13.60;;;;;;;12.59;75.72;99945.87;105354;1261;97785;-76
2023/04/12 12:16:30;;;;;;;14.70;11.50;;;;;;;12.64;75.66;99939.27;105180;1258;103016;-77
2023/04/12 12:19:26;;;;;;;12.10;10.80;;;;;;;12.67;74.69;99934.11;105913;1260;100309;-77
2023/04/12 12:22:17;;;;;;;14.90;11.00;;;;;;;12.73;75.44;99931.10;105660;1260;98057;-75
2023/04/12 12:25:02;;;;;;;13.00;10.80;;;;;;;12.82;75.39;99929.60;105385;1272;97985;-75
2023/04/12 12:27:49;;;;;;;15.00;11.20;;;;;;;12.92;75.59;99924.11;105181;1255;98627;-75
2023/04/12 12:30:38;;;;;;;14.50;12.00;;;;;;;13.00;75.01;99921.16;105544;1258;101504;-78
2023/04/12 12:33:36;;;;;;;13.30;11.30;;;;;;;13.03;74.49;99918.23;105159;1256;99145;-78
2023/04/12 12:36:35;;;;;;;14.00;11.50;;;;;;;13.06;74.56;99906.82;106054;1254;97903;-80
2023/04/12 12:39:20;;;;;;;14.10;10.80;;;;;;;13.19;74.87;99899.81;106621;1256;97981;-79
2023/04/12 12:42:06;;;;;;;16.20;11.30;;;;;;;13.32;74.75;99896.52;105985;1255;97962;-78
2023/04/12 12:44:52;;;;;;;15.10;11.50;;;;;;;13.37;73.32;99892.19;105263;1262;102595;-78
2023/04/12 12:47:57;;;;;;;13.00;10.80;;;;;;;13.38;72.60;99885.10;105466;1260;100534;-78